Timeline UpdatesTrip UpdatesNews PostsPvt PostsTravel TipsAdmin PostsConv PostsFollowed PostsChat RequestsBlog PostsPNR Posts

Disclaimer
Search
 
 
Tue Sep 16, 2014 06:22:20 ISTHomeTrainsΣChainsAtlasPNRForumGalleryNewsFAQTripsMembersLoginFeedback
No Recent News for this Train
Other Trains in the News **new
Latest...
Change in timings ex - Originating and Terminating Station ex 01.09.2014
Sun Aug 31, 2014 (07:08AM)
⇐ Return Journey: Train# 15484

14083⇒15483/Sikkim Mahananda Express

Time-Table HAS CHANGED.
Sep 03 (10:32AM)
Change Departure Station:
Change Arrival Station:
Post a Train Travel TipPost a Train Travel Tip **new
Post a Comment/Question/Picture/VideoPost a Comment/Question/Picture/Video
Pantry/Catering
✓ Pantry Car Avbl
✓ Catering Avbl
RSA - Rake Sharing
Rake/Coach Composition
LOCO-SLR-GS-GS-GS-AB-B1-PC-S11-S10-S9-S8-S7-S6-S5-S4-S3-S2-S1-GS-GS-GS-SLR
Loco
SGUJ WDP-4 (APDJ to PNBE), GZB/MGS WAP-4 (PNBE to DLI)
News    PNR    Forum    Time-Table    Availability    Fare Chart    Map    Arr/Dep History    Trips    Gallery    ΣChains    X/O    Timeline    
Travel Time: 10h 15m    16 halts    Distance: 435 km    Avg Speed: 42 km/hr
Type: Mail/Express
Zone: NFR/Northeast Frontier
Departs @ 12:25 (Avg 4h 16m late)
Platform# 5
SMTWTFS
Kanpur Central/CNB 
Arrives @ 22:40 (Avg 4h 21m late)
Platform# 11
SMTWTFS
Old Delhi Junction/DLI 

16 halts. 64 intermediate Stations between Kanpur Central and Old Delhi Junction

Show ALL intermediate Stations  Show Old Time-Table

#CodeStation NameX/OArrivesAvgDepartsAvgHaltPFDay#KmSpeedElevZoneAddress
1APDJAlipur Duar Junction (3)  -09:50+3:3311-1216.47053mNFRDist - Alipurduar, West Bengal
2HSAHasimara (3)X  10:20+3:2810:22+3:292m--1-1181.666123mNFRDist - Alipurduar, West Bengal
3DLODalgaon (3)  10:46 10:45+3:3110:47+3:321 2m11-1156.354 NFRDist : Alipurduar, West Bengal
4BNVBinnaguri (3)  11:01 10:57+3:3411:02+3:341 5m--1-1147.365132mNFRDist : jalpaiguri, West Bengal
5NMZNew Mal Junction (3)  11:43+3:4111:48+3:405m--1-1103.043161mNFRDist - Jalpaiguri, West Bengal
6SGUJSiliguri Junction (5)X  12:55+3:4313:00+3:465m--1-1055.212120mNFRDist-Darjeeling Siliguri-734001, West Bengal
7NJPNew Jalpaiguri Junction (8)X  13:35+3:5213:55+3:5420m31-1047.977114mNFRCity-Siliguri . Dist-Jalpaiguri, West Bengal
8AUBAluabari Road (2)O  14:39+4:0014:41+4:002m21-991.2630mNFRDist - uttar Dinajpur, West Bengal
9KNEKishanGanj (3)O  15:10+3:5715:15+3:565m21-960.67452mNFRKishanganj, Bihar
10DLKDalkhola (3)X  15:39 15:38+4:0815:40+4:101 2m101-932.15844mNFRDalkola, West Bengal
11BOEBarsoi Junction (3)X  16:10+4:2516:12+4:252m--1-903.05737mNFRdist- katihar, Bihar
12AZRAzamnagar Road (3)X  16:27 16:26+4:1816:28+4:091 2m--1-889.73134mNFRAzamnagar, Bihar
13LAVLabha (2)  17:10 17:09+4:2217:11+4:221 2m11-868.61529mNFRDist : Katihar, Bihar
14KIRKatihar Junction (7)X  18:45+3:3919:00+3:3115m51-845.84335mNFRKatihar 854105, Bihar
15SMOSemapurX  19:15 19:16+3:5419:16 19:18+3:541 2m--1-834.37235mECRKatihar, Bihar
16CRRKaragola Road  19:26 19:27+4:1019:27 19:29+4:151 2m--1-823.58536mECRLachhmipur, Bihar
17KUEKurselaX  19:40 19:41+4:1519:41 19:43+4:191 2m--1-806.65131mECRNH 31, Bihar
18NNANaugachia (3)X  20:04 20:05+4:2120:05 20:07+4:221 2m--1-788.06837mECRBhagalpur, Bihar
19THBThana Bihpur Junction (3)  20:20 20:21+4:2320:21 20:23+4:241 2m--1-772.15739mECRThana Bihpur, Bihar
20NNRNarayanpur (2)  20:30 20:31+4:1320:31 20:33+4:251 2m--1-764.55839mECRNarayanpur, Bihar
21PSRPasraha (3)  20:44 20:45+4:1820:45 20:47+4:251 2m--1-752.95741mECRPasraha, Bihar
22MSKMahes Khunt (2)X  20:59 21:00+4:2921:00 21:02+4:331 2m--1-740.56237mECRMaheshkhunt, Bihar
23MNEMansi Junction (4)X  21:11 21:12+4:3621:12 21:14+4:401 2m--1-730.15343mECRMansi, Bihar
24KGGKhagaria Junction (3)X  21:28 21:24+4:3621:29+4:391 5m--1-721.35743mECRKhagaria, Bihar
25SKJSahibpur Kamal Junction (2)  21:41 21:42+4:3921:42 21:59+4:371 17m--1-708.96541mECRShahpur Kamal, Bihar
26LKNLakhminia (3)X  21:56 22:08+4:4221:57 22:10+4:441 2m--1-699.28245mECRBegusarai, Bihar
27BGSBegusarai (3)  22:27 22:23+4:1022:28+4:111 5m--1-681.42246mECRBegusarai, Bihar
28BJUBarauni Junction (9)X  23:05+4:1723:10+4:195m11-668.02849mECRBegusarai, Bihar
29MKAMokama Junction (4)  23:54+4:1623:56+4:162m31-647.38848mECRPatna, Bihar
30BKPBakhtiyarpur Junction (5)X  00:26+4:1100:28+4:122m--2-603.24751mECRPatna, Bihar
31PNBEPatna Junction (10)X  01:25+3:4201:50+3:4825m42-558.03557mECRPatna 800001, Bihar
32DNRDanapur (5)  02:06+4:1002:08+4:112m--2-548.79158mECRKhagaul, Bihar
33ARAAra Junction (3)X  02:34+4:2302:36+4:232m--2-509.17163mECRarrah( 06182-233411), Bihar
34BXRBuxar (3)X  03:34+4:0203:36+3:592m--2-440.64767mECRBuxar, Bihar
35MGSMughal Sarai Junction (8)  05:35+3:2905:45+3:4210m42-346.74783mECRMughalsarai 232101, Uttar Pradesh
36MZPMirzapur (3)X  07:09 07:05+4:2407:10+4:281 5m--2-283.54488mNCRMirzapur, Uttar Pradesh
37BDLVindhyachal (3)  07:21 07:20+4:3607:22+4:391 2m--2-276.27788mNCRMirzapur, Uttar Pradesh
38NYNNaini Junction (4)  08:20+4:4908:22+4:502m22-201.42498mNCRAllahabad, Uttar Pradesh
39ALDAllahabad Junction (10)XOO  08:40+4:4908:55+4:4915m32-194.365100mNCRAllahabad 211003, Uttar Pradesh
40FTPFatehpur (3)  10:44 10:42+4:2810:45+4:291 3m--2-77.652120mNCRFatehpur, Uttar Pradesh
41CNB»Kanpur Central (10)»X  12:15+4:1412:25+4:1610m520.030128mNCRKANPUR-208 001, Uttar Pradesh
42PNKPanki (3)XO  12:49 12:48+3:3112:50+3:371 2m--211.538129mNCRKANPUR-208 020, Uttar Pradesh
43RURARura (4)  13:43 13:42+3:0513:44+3:071 2m--244.360137mNCRJhinjhak, Uttar Pradesh
44JJKJhinjhak (3)  14:04 14:03+3:0514:05+3:071 2m3263.474140mNCRAuraiya, Uttar Pradesh
45PHDPhaphund (4)  14:22 14:21+3:4814:23+3:511 2m--283.267146mNCRdist. Auraiya, Uttar Pradesh
46ULDAchalda (3)X  14:39 14:38+3:1414:40+3:181 2m--2100.069147mNCRDist. Auraiya(05688-1072), Uttar Pradesh
47BNTBharthana (3)X  14:58 14:57+3:1014:59+3:141 2m--2119.563147mNCRBharthana, Uttar Pradesh
48ETWEtawah (5)  15:22 15:18+4:0215:23+4:031 5m22139.481154mNCRDistt. Etawah, Uttar Pradesh
49SKBShikohabad Junction (4)  16:08 16:04+4:0516:09+4:061 5m32194.870166mNCRDistrict Firozabad, Uttar Pradesh
50FZDFirozabad (4)XO  16:30 16:26+3:5016:31+3:521 5m32214.616164mNCRFirozabad, Uttar Pradesh
51TDLTundla Junction (5)XO  17:35+3:2917:45+3:2810m22231.273167mNCRDistt.Firozabad, Uttar Pradesh
52JLSJalesar Road (1)X  18:09 18:08+3:2318:10+3:281 2m12259.167172mNCRMDR 106W, Uttar Pradesh
53HRSHathras Junction (3)X  18:32 18:28+4:4618:33+4:471 5m--2279.282183mNCRMahamaya Nagar(05722-242803), Uttar Pradesh
54ALJNAligarh Junction (4)  18:55+3:4019:00+3:405m22309.349192mNCRAligarh, Uttar Pradesh
55KRJKhurja Junction (4)XO  19:53+3:5219:58+3:505m--2352.835199mNCRBulandshahr, Uttar Pradesh
56GZBGhaziabad Junction (6)X  21:45+3:3821:47+3:382m32415.551217mNRGhaziabad, Uttar Pradesh
57DSAShahdara Junction (4)  22:04 22:03+5922:05+591 2m--2429.111212mNRCircular Rd, Delhi NCT
58DLI•Old Delhi Junction (16)•  22:40+4:21-112435.4-219mNRNear Chandni Chowk Metro Station, Delhi NCT
Scroll to Top
Scroll to Bottom